Time;durP1;ratioP1;P1;durP2;ratioP2;P2;SDS_P1;SDS_P2;PMS_P1;PMS_P2;Temp;Humidity;BMP_temperature;BMP_pressure;BME280_temperature;BME280_humidity;BME280_pressure;Samples;Min_cycle;Max_cycle;Signal;HPM_P1;HPM_P2
2022/01/03 00:01:06;;;;;;;;;;;20.40;40.40;;;;;;482226;246;1461;-46
2022/01/03 00:03:07;;;;;;;;;;;20.50;40.30;;;;;;482229;246;1545;-46
2022/01/03 00:05:08;;;;;;;;;;;20.50;40.30;;;;;;482301;246;1066;-46
2022/01/03 00:07:10;;;;;;;;;;;20.50;40.30;;;;;;482250;246;2121;-46
2022/01/03 00:09:11;;;;;;;;;;;20.50;40.30;;;;;;482716;246;1250;-46
2022/01/03 00:11:12;;;;;;;;;;;20.50;40.30;;;;;;482212;246;1232;-47
2022/01/03 00:13:14;;;;;;;;;;;20.40;40.30;;;;;;482204;246;1188;-47
2022/01/03 00:15:15;;;;;;;;;;;20.50;40.30;;;;;;482290;246;1279;-47
2022/01/03 00:17:16;;;;;;;;;;;20.50;40.30;;;;;;482272;246;1177;-46
2022/01/03 00:19:18;;;;;;;;;;;20.40;40.30;;;;;;482351;246;1112;-46
2022/01/03 00:21:19;;;;;;;;;;;20.40;40.40;;;;;;482625;246;1334;-46
2022/01/03 00:23:20;;;;;;;;;;;20.40;40.40;;;;;;482210;246;1233;-47
2022/01/03 00:25:22;;;;;;;;;;;20.40;40.40;;;;;;482387;246;1095;-46
2022/01/03 00:27:23;;;;;;;;;;;20.40;40.40;;;;;;482374;246;2118;-46
2022/01/03 00:29:24;;;;;;;;;;;20.40;40.50;;;;;;482717;246;1352;-46
2022/01/03 00:31:25;;;;;;;;;;;20.40;40.40;;;;;;482690;246;1338;-46
2022/01/03 00:33:27;;;;;;;;;;;20.30;40.40;;;;;;482200;246;1201;-46
2022/01/03 00:35:28;;;;;;;;;;;20.30;40.50;;;;;;482702;246;1110;-46
2022/01/03 00:37:29;;;;;;;;;;;20.30;40.40;;;;;;482211;246;1164;-46
2022/01/03 00:39:31;;;;;;;;;;;20.30;40.40;;;;;;482270;246;1208;-46
2022/01/03 00:41:32;;;;;;;;;;;20.40;40.30;;;;;;482518;246;1188;-46
2022/01/03 00:43:33;;;;;;;;;;;20.40;40.40;;;;;;482382;246;1225;-46
2022/01/03 00:45:35;;;;;;;;;;;20.40;40.50;;;;;;482513;246;1305;-46
2022/01/03 00:47:36;;;;;;;;;;;20.40;40.40;;;;;;482274;246;2196;-46
2022/01/03 00:49:37;;;;;;;;;;;20.40;40.40;;;;;;482269;246;1078;-46
2022/01/03 00:51:39;;;;;;;;;;;20.30;40.40;;;;;;482379;246;1205;-46
2022/01/03 00:53:40;;;;;;;;;;;20.40;40.30;;;;;;482343;246;1146;-46
2022/01/03 00:55:41;;;;;;;;;;;20.40;40.30;;;;;;482286;246;1283;-46
2022/01/03 00:57:43;;;;;;;;;;;20.40;40.20;;;;;;482421;246;1374;-46
2022/01/03 00:59:44;;;;;;;;;;;20.40;40.30;;;;;;482326;246;1049;-46
2022/01/03 01:01:45;;;;;;;;;;;20.40;40.40;;;;;;482188;246;1276;-46
2022/01/03 01:03:46;;;;;;;;;;;20.40;40.40;;;;;;482366;246;1109;-46
2022/01/03 01:05:48;;;;;;;;;;;20.40;40.40;;;;;;482263;246;1380;-46
2022/01/03 01:07:49;;;;;;;;;;;20.40;40.50;;;;;;482158;246;2150;-46
2022/01/03 01:09:51;;;;;;;;;;;20.40;40.50;;;;;;482250;246;1059;-46
2022/01/03 01:11:52;;;;;;;;;;;20.30;40.40;;;;;;482408;246;1613;-47
2022/01/03 01:13:54;;;;;;;;;;;20.30;40.40;;;;;;482337;246;1235;-46
2022/01/03 01:15:55;;;;;;;;;;;20.40;40.50;;;;;;482570;246;1163;-46
2022/01/03 01:17:56;;;;;;;;;;;20.30;40.50;;;;;;482447;246;1219;-46
2022/01/03 01:19:58;;;;;;;;;;;20.30;40.50;;;;;;482404;246;1055;-46
2022/01/03 01:21:59;;;;;;;;;;;20.30;40.60;;;;;;482318;246;1525;-46
2022/01/03 01:24:00;;;;;;;;;;;20.30;40.60;;;;;;482242;246;1039;-46
2022/01/03 01:28:21;;;;;;;;;;;20.30;40.40;;;;;;482542;247;2122;-46
2022/01/03 01:30:22;;;;;;;;;;;20.30;40.50;;;;;;482728;246;1041;-47
2022/01/03 01:32:23;;;;;;;;;;;20.30;40.50;;;;;;482228;246;1678;-46
2022/01/03 01:34:26;;;;;;;;;;;20.30;40.50;;;;;;482695;246;1046;-46
2022/01/03 01:36:26;;;;;;;;;;;20.30;40.40;;;;;;482154;246;1772;-46
2022/01/03 01:38:27;;;;;;;;;;;20.30;40.40;;;;;;482566;246;1201;-46
2022/01/03 01:40:29;;;;;;;;;;;20.30;40.40;;;;;;482311;246;1106;-46
2022/01/03 01:42:30;;;;;;;;;;;20.30;40.50;;;;;;482291;246;1239;-46
2022/01/03 01:44:32;;;;;;;;;;;20.30;40.50;;;;;;482303;246;1200;-46
2022/01/03 01:46:33;;;;;;;;;;;20.30;40.50;;;;;;482438;246;1153;-46
2022/01/03 01:48:34;;;;;;;;;;;20.30;40.60;;;;;;482582;246;2117;-46
2022/01/03 01:50:36;;;;;;;;;;;20.20;40.60;;;;;;482263;246;1185;-46
2022/01/03 01:52:37;;;;;;;;;;;20.20;40.60;;;;;;482238;246;1149;-46
2022/01/03 01:54:38;;;;;;;;;;;20.20;40.60;;;;;;482740;246;1193;-46
2022/01/03 01:56:40;;;;;;;;;;;20.20;40.50;;;;;;482558;246;1128;-46
2022/01/03 01:58:41;;;;;;;;;;;20.20;40.60;;;;;;482571;246;1202;-46
2022/01/03 02:00:42;;;;;;;;;;;20.20;40.60;;;;;;482583;246;1057;-46
2022/01/03 02:02:44;;;;;;;;;;;20.20;40.60;;;;;;482571;246;1792;-46
2022/01/03 02:04:45;;;;;;;;;;;20.20;40.60;;;;;;482722;246;998;-46
2022/01/03 02:06:47;;;;;;;;;;;20.30;40.60;;;;;;482207;246;1225;-46
2022/01/03 02:08:48;;;;;;;;;;;20.30;40.60;;;;;;482201;246;2189;-46
2022/01/03 02:10:49;;;;;;;;;;;20.20;40.50;;;;;;482189;246;1145;-46
2022/01/03 02:12:50;;;;;;;;;;;20.20;40.50;;;;;;482702;246;1243;-46
2022/01/03 02:14:56;;;;;;;;;;;20.20;40.60;;;;;;482279;246;1180;-47
2022/01/03 02:16:53;;;;;;;;;;;20.20;40.70;;;;;;481923;247;1348;-46
2022/01/03 02:18:54;;;;;;;;;;;20.20;40.70;;;;;;482522;246;1067;-46
2022/01/03 02:20:56;;;;;;;;;;;20.20;40.60;;;;;;482702;246;1235;-46
2022/01/03 02:22:57;;;;;;;;;;;20.20;40.60;;;;;;482430;246;1147;-46
2022/01/03 02:24:58;;;;;;;;;;;20.20;40.60;;;;;;482740;246;1084;-46
2022/01/03 02:27:00;;;;;;;;;;;20.20;40.60;;;;;;482205;246;1448;-46
2022/01/03 02:29:01;;;;;;;;;;;20.20;40.60;;;;;;482292;246;2138;-47
2022/01/03 02:31:02;;;;;;;;;;;20.20;40.60;;;;;;482384;246;1198;-46
2022/01/03 02:33:04;;;;;;;;;;;20.20;40.60;;;;;;482277;246;1110;-46
2022/01/03 02:35:05;;;;;;;;;;;20.20;40.60;;;;;;482697;246;1091;-46
2022/01/03 02:37:06;;;;;;;;;;;20.20;40.60;;;;;;482180;246;1237;-46
2022/01/03 02:39:08;;;;;;;;;;;20.20;40.70;;;;;;482246;246;1262;-46
2022/01/03 02:41:09;;;;;;;;;;;20.20;40.70;;;;;;482446;246;1482;-46
2022/01/03 02:43:10;;;;;;;;;;;20.20;40.70;;;;;;482405;246;1302;-46
2022/01/03 02:45:12;;;;;;;;;;;20.20;40.70;;;;;;482296;246;1225;-46
2022/01/03 02:47:13;;;;;;;;;;;20.20;40.70;;;;;;482149;246;2129;-46
2022/01/03 02:49:14;;;;;;;;;;;20.20;40.70;;;;;;482465;246;1359;-46
2022/01/03 02:51:15;;;;;;;;;;;20.20;40.60;;;;;;482147;246;1168;-46
2022/01/03 02:53:17;;;;;;;;;;;20.20;40.70;;;;;;482281;246;1052;-47
2022/01/03 02:55:18;;;;;;;;;;;20.20;40.70;;;;;;482693;246;1466;-46
2022/01/03 02:57:23;;;;;;;;;;;20.20;40.70;;;;;;482273;246;1197;-47
2022/01/03 02:59:21;;;;;;;;;;;20.10;40.70;;;;;;482108;247;1501;-46
2022/01/03 03:01:22;;;;;;;;;;;20.10;40.60;;;;;;482254;246;1362;-46
2022/01/03 03:03:24;;;;;;;;;;;20.10;40.70;;;;;;482218;246;1161;-46
2022/01/03 03:05:25;;;;;;;;;;;20.10;40.60;;;;;;482367;246;1059;-46
2022/01/03 03:07:26;;;;;;;;;;;20.20;40.70;;;;;;482126;246;2208;-46
2022/01/03 03:09:27;;;;;;;;;;;20.10;40.70;;;;;;482665;246;1030;-46
2022/01/03 03:11:29;;;;;;;;;;;20.20;40.70;;;;;;482436;246;1330;-46
2022/01/03 03:13:30;;;;;;;;;;;20.20;40.70;;;;;;482666;246;1100;-46
2022/01/03 03:15:31;;;;;;;;;;;20.10;40.60;;;;;;482261;246;1228;-46
2022/01/03 03:17:33;;;;;;;;;;;20.20;40.70;;;;;;482181;246;1146;-47
2022/01/03 03:19:34;;;;;;;;;;;20.20;40.70;;;;;;482304;246;1035;-46
2022/01/03 03:21:35;;;;;;;;;;;20.20;40.70;;;;;;482382;244;1546;-47
2022/01/03 03:23:37;;;;;;;;;;;20.10;40.70;;;;;;482578;246;1041;-46
2022/01/03 03:25:38;;;;;;;;;;;20.10;40.70;;;;;;482604;246;1161;-46
2022/01/03 03:27:43;;;;;;;;;;;20.20;40.70;;;;;;482158;246;2201;-46
2022/01/03 03:29:41;;;;;;;;;;;20.20;40.70;;;;;;482089;247;2308;-46
2022/01/03 03:31:42;;;;;;;;;;;20.10;40.60;;;;;;482430;246;1191;-46
2022/01/03 03:33:44;;;;;;;;;;;20.20;40.60;;;;;;482650;246;1222;-46
2022/01/03 03:35:45;;;;;;;;;;;20.10;40.70;;;;;;482615;246;1259;-46
2022/01/03 03:37:46;;;;;;;;;;;20.10;40.60;;;;;;482404;246;1513;-46
2022/01/03 03:39:47;;;;;;;;;;;20.20;40.60;;;;;;482286;246;1084;-46
2022/01/03 03:41:49;;;;;;;;;;;20.20;40.70;;;;;;482197;246;1203;-46
2022/01/03 03:43:51;;;;;;;;;;;20.10;40.70;;;;;;482245;246;1076;-46
2022/01/03 03:45:51;;;;;;;;;;;20.20;40.70;;;;;;482150;246;2160;-46
2022/01/03 03:47:53;;;;;;;;;;;20.10;40.80;;;;;;482645;246;2200;-46
2022/01/03 03:49:54;;;;;;;;;;;20.20;40.80;;;;;;482711;246;1045;-46
2022/01/03 03:51:55;;;;;;;;;;;20.10;40.70;;;;;;482180;246;1257;-46
2022/01/03 03:53:57;;;;;;;;;;;20.10;40.70;;;;;;482379;246;1239;-46
2022/01/03 03:55:58;;;;;;;;;;;20.10;40.70;;;;;;482361;246;1229;-46
2022/01/03 03:57:59;;;;;;;;;;;20.10;40.70;;;;;;482233;246;1062;-46
2022/01/03 04:00:01;;;;;;;;;;;20.10;40.70;;;;;;482258;246;1322;-46
2022/01/03 04:02:02;;;;;;;;;;;20.10;40.80;;;;;;482244;246;1802;-46
2022/01/03 04:04:03;;;;;;;;;;;20.10;40.80;;;;;;482261;246;1312;-46
2022/01/03 04:06:05;;;;;;;;;;;20.10;40.80;;;;;;482449;246;1410;-46
2022/01/03 04:08:06;;;;;;;;;;;20.10;40.70;;;;;;482157;246;2121;-46
2022/01/03 04:10:07;;;;;;;;;;;20.10;40.70;;;;;;482703;246;1208;-46
2022/01/03 04:12:09;;;;;;;;;;;20.10;40.70;;;;;;482251;246;1410;-46
2022/01/03 04:14:10;;;;;;;;;;;20.10;40.60;;;;;;482422;246;1333;-46
2022/01/03 04:16:12;;;;;;;;;;;20.10;40.60;;;;;;482132;246;1420;-46
2022/01/03 04:18:13;;;;;;;;;;;20.20;40.70;;;;;;482468;246;1207;-46
2022/01/03 04:20:15;;;;;;;;;;;20.10;40.60;;;;;;482394;246;1038;-46
2022/01/03 04:22:15;;;;;;;;;;;20.20;40.70;;;;;;482273;247;2183;-47
2022/01/03 04:24:17;;;;;;;;;;;20.10;40.70;;;;;;482221;246;1075;-46
2022/01/03 04:26:18;;;;;;;;;;;20.10;40.80;;;;;;482157;246;1383;-46
2022/01/03 04:28:19;;;;;;;;;;;20.10;40.80;;;;;;482237;246;2196;-46
2022/01/03 04:30:21;;;;;;;;;;;20.10;40.80;;;;;;482458;246;1233;-46
2022/01/03 04:32:22;;;;;;;;;;;20.10;40.80;;;;;;482247;246;1164;-46
2022/01/03 04:34:23;;;;;;;;;;;20.10;40.70;;;;;;482491;246;1069;-46
2022/01/03 04:36:25;;;;;;;;;;;20.30;40.30;;;;;;482211;246;1284;-46
2022/01/03 04:38:26;;;;;;;;;;;20.50;39.80;;;;;;482673;246;1195;-46
2022/01/03 04:40:27;;;;;;;;;;;20.70;39.50;;;;;;482605;246;1285;-46
2022/01/03 04:42:28;;;;;;;;;;;20.90;39.30;;;;;;482536;246;1230;-47
2022/01/03 04:44:31;;;;;;;;;;;21.00;39.00;;;;;;482419;246;1178;-46
2022/01/03 04:46:31;;;;;;;;;;;21.10;38.80;;;;;;482145;246;1992;-47
2022/01/03 04:48:32;;;;;;;;;;;21.20;38.60;;;;;;482254;246;2122;-46
2022/01/03 04:50:34;;;;;;;;;;;21.20;38.50;;;;;;482721;246;1128;-46
2022/01/03 04:52:35;;;;;;;;;;;21.30;38.40;;;;;;482317;246;1229;-47
2022/01/03 04:54:36;;;;;;;;;;;21.40;38.30;;;;;;482682;246;1285;-46
2022/01/03 04:56:38;;;;;;;;;;;21.40;38.20;;;;;;482612;246;1171;-46
2022/01/03 04:58:39;;;;;;;;;;;21.40;38.10;;;;;;482523;246;1040;-47
2022/01/03 05:00:40;;;;;;;;;;;21.50;38.00;;;;;;482261;243;1266;-47
2022/01/03 05:02:42;;;;;;;;;;;21.50;38.00;;;;;;482341;246;1312;-47
2022/01/03 05:04:43;;;;;;;;;;;21.50;37.90;;;;;;482293;246;1054;-47
2022/01/03 05:06:44;;;;;;;;;;;21.60;37.90;;;;;;482335;246;1344;-47
2022/01/03 05:08:46;;;;;;;;;;;21.60;37.80;;;;;;482258;246;2189;-46
2022/01/03 05:10:47;;;;;;;;;;;21.60;37.80;;;;;;482264;246;1344;-46
2022/01/03 05:12:48;;;;;;;;;;;21.70;37.70;;;;;;482222;246;1241;-47
2022/01/03 05:14:50;;;;;;;;;;;21.70;37.70;;;;;;482191;246;1166;-46
2022/01/03 05:16:52;;;;;;;;;;;21.70;37.60;;;;;;482185;246;1189;-47
2022/01/03 05:18:52;;;;;;;;;;;21.80;37.60;;;;;;482164;247;1844;-46
2022/01/03 05:20:54;;;;;;;;;;;21.80;37.60;;;;;;482224;246;1459;-47
2022/01/03 05:22:55;;;;;;;;;;;21.80;37.60;;;;;;482172;246;1073;-46
2022/01/03 05:24:56;;;;;;;;;;;21.80;37.50;;;;;;482710;246;1308;-46
2022/01/03 05:26:57;;;;;;;;;;;21.80;37.50;;;;;;482165;246;1172;-46
2022/01/03 05:28:59;;;;;;;;;;;21.90;37.50;;;;;;482376;246;2200;-46
2022/01/03 05:31:01;;;;;;;;;;;21.90;37.50;;;;;;482277;246;1301;-47
2022/01/03 05:33:01;;;;;;;;;;;21.90;37.50;;;;;;482202;246;2270;-47
2022/01/03 05:35:03;;;;;;;;;;;21.90;37.40;;;;;;482197;246;1210;-47
2022/01/03 05:37:04;;;;;;;;;;;21.90;37.40;;;;;;482343;246;1238;-47
2022/01/03 05:39:05;;;;;;;;;;;22.00;37.40;;;;;;482158;246;975;-46
2022/01/03 05:41:07;;;;;;;;;;;22.00;37.40;;;;;;482433;246;1289;-46
2022/01/03 05:43:10;;;;;;;;;;;22.00;37.40;;;;;;482348;246;1108;-47
2022/01/03 05:45:09;;;;;;;;;;;22.00;37.30;;;;;;482075;246;2396;-47
2022/01/03 05:47:11;;;;;;;;;;;22.00;37.30;;;;;;482062;246;1205;-47
2022/01/03 05:49:12;;;;;;;;;;;22.00;37.30;;;;;;482240;246;2199;-47
2022/01/03 05:51:13;;;;;;;;;;;22.00;37.30;;;;;;482357;246;1345;-47
2022/01/03 05:53:15;;;;;;;;;;;22.10;37.30;;;;;;482073;246;1359;-46
2022/01/03 05:55:16;;;;;;;;;;;22.10;37.30;;;;;;482138;246;978;-47
2022/01/03 05:57:17;;;;;;;;;;;22.10;37.20;;;;;;481949;246;1923;-47
2022/01/03 05:59:19;;;;;;;;;;;22.10;37.20;;;;;;482120;246;1218;-46
2022/01/03 06:01:22;;;;;;;;;;;22.10;37.20;;;;;;482156;246;1284;-46
2022/01/03 06:03:23;;;;;;;;;;;22.10;37.20;;;;;;481978;246;2096;-47
2022/01/03 06:05:39;;;;;;;;;;;22.10;37.20;;;;;;481974;247;2403;-46
2022/01/03 06:07:33;;;;;;;;;;;22.10;37.10;;;;;;481481;247;2303;-47
2022/01/03 06:09:34;;;;;;;;;;;22.10;37.20;;;;;;482200;246;2196;-46
2022/01/03 06:11:35;;;;;;;;;;;22.20;37.20;;;;;;482287;246;1457;-46
2022/01/03 06:13:37;;;;;;;;;;;22.20;37.20;;;;;;482068;246;1057;-46
2022/01/03 06:15:38;;;;;;;;;;;22.20;37.10;;;;;;482096;246;1228;-46
2022/01/03 06:17:39;;;;;;;;;;;22.20;37.10;;;;;;482037;246;1194;-46
2022/01/03 06:19:40;;;;;;;;;;;22.20;37.10;;;;;;482147;246;1155;-46
2022/01/03 06:21:42;;;;;;;;;;;22.20;37.10;;;;;;482454;246;1337;-47
2022/01/03 06:23:43;;;;;;;;;;;22.20;37.10;;;;;;482273;246;1228;-46
2022/01/03 06:25:44;;;;;;;;;;;22.20;37.10;;;;;;482046;246;1355;-47
2022/01/03 06:27:46;;;;;;;;;;;22.20;37.10;;;;;;482127;246;1183;-47
2022/01/03 06:29:47;;;;;;;;;;;22.20;37.10;;;;;;482138;246;2114;-46
2022/01/03 06:31:50;;;;;;;;;;;22.20;37.00;;;;;;482217;246;1359;-47
2022/01/03 06:33:50;;;;;;;;;;;22.20;37.00;;;;;;482045;247;2319;-47
2022/01/03 06:35:51;;;;;;;;;;;22.20;37.00;;;;;;482088;246;1163;-47
2022/01/03 06:37:53;;;;;;;;;;;22.30;37.00;;;;;;482107;246;1178;-46
2022/01/03 06:39:54;;;;;;;;;;;22.30;37.00;;;;;;482583;246;1038;-47
2022/01/03 06:41:55;;;;;;;;;;;22.30;37.00;;;;;;482363;246;1429;-46
2022/01/03 06:43:57;;;;;;;;;;;22.30;37.00;;;;;;482400;246;1277;-47
2022/01/03 06:45:58;;;;;;;;;;;22.30;37.00;;;;;;482009;246;1199;-46
2022/01/03 06:47:59;;;;;;;;;;;22.30;37.00;;;;;;481999;246;1222;-47
2022/01/03 06:50:01;;;;;;;;;;;22.40;37.00;;;;;;482050;246;2125;-47
2022/01/03 06:52:02;;;;;;;;;;;22.30;37.00;;;;;;482041;246;1252;-46
2022/01/03 06:54:04;;;;;;;;;;;22.40;37.00;;;;;;482057;246;1062;-47
2022/01/03 06:56:05;;;;;;;;;;;22.40;37.00;;;;;;482175;246;1150;-47
2022/01/03 06:58:06;;;;;;;;;;;22.40;37.00;;;;;;482076;246;1175;-47
2022/01/03 07:00:08;;;;;;;;;;;22.40;37.00;;;;;;482560;246;1049;-47
2022/01/03 07:02:09;;;;;;;;;;;22.40;36.90;;;;;;482072;246;1871;-47
2022/01/03 07:04:10;;;;;;;;;;;22.40;36.90;;;;;;482105;246;1094;-47
2022/01/03 07:06:11;;;;;;;;;;;22.40;36.90;;;;;;482255;246;1550;-47
2022/01/03 07:08:13;;;;;;;;;;;22.40;36.90;;;;;;482001;246;1090;-47
2022/01/03 07:10:17;;;;;;;;;;;22.40;36.90;;;;;;482429;246;2130;-47
2022/01/03 07:12:16;;;;;;;;;;;22.40;36.90;;;;;;481886;247;1705;-47
2022/01/03 07:19:00;;;;;;;;;;;22.40;36.80;;;;;;482514;247;1066;-47
2022/01/03 07:20:59;;;;;;;;;;;22.50;36.80;;;;;;481907;247;2622;-47
2022/01/03 07:23:01;;;;;;;;;;;22.50;36.80;;;;;;482001;246;1194;-47
2022/01/03 07:25:02;;;;;;;;;;;22.50;36.80;;;;;;482063;246;1118;-46
2022/01/03 07:27:03;;;;;;;;;;;22.50;36.80;;;;;;481956;246;1859;-47
2022/01/03 07:29:05;;;;;;;;;;;22.50;36.80;;;;;;482107;246;2133;-47
2022/01/03 07:31:06;;;;;;;;;;;22.50;36.80;;;;;;482189;246;1380;-46
2022/01/03 07:33:07;;;;;;;;;;;22.50;36.80;;;;;;481918;246;1522;-47
2022/01/03 07:35:12;;;;;;;;;;;22.50;36.80;;;;;;481975;246;1038;-47
2022/01/03 07:37:10;;;;;;;;;;;22.50;36.80;;;;;;481666;246;2049;-47
2022/01/03 07:39:12;;;;;;;;;;;22.50;36.80;;;;;;482019;246;1057;-47
2022/01/03 07:41:14;;;;;;;;;;;22.50;36.80;;;;;;481990;246;1232;-47
2022/01/03 07:43:14;;;;;;;;;;;22.50;36.80;;;;;;482101;247;2160;-47
2022/01/03 07:45:15;;;;;;;;;;;22.50;36.80;;;;;;482059;246;1067;-46
2022/01/03 07:47:17;;;;;;;;;;;22.50;36.80;;;;;;481969;246;1545;-46
2022/01/03 07:49:18;;;;;;;;;;;22.50;36.70;;;;;;481963;246;2184;-47
2022/01/03 07:51:19;;;;;;;;;;;22.50;36.70;;;;;;481968;246;1497;-47
2022/01/03 07:53:21;;;;;;;;;;;22.50;36.70;;;;;;481961;246;1244;-47
2022/01/03 07:55:22;;;;;;;;;;;22.50;36.70;;;;;;482089;246;1062;-46
2022/01/03 07:57:23;;;;;;;;;;;22.50;36.70;;;;;;481892;246;1395;-47
2022/01/03 07:59:25;;;;;;;;;;;22.50;36.70;;;;;;481912;246;1335;-47
2022/01/03 08:01:26;;;;;;;;;;;22.50;36.70;;;;;;481946;246;1541;-47
2022/01/03 08:03:27;;;;;;;;;;;22.50;36.70;;;;;;481874;246;1552;-47
2022/01/03 08:05:29;;;;;;;;;;;22.50;36.60;;;;;;482115;246;1078;-46
2022/01/03 08:07:30;;;;;;;;;;;22.50;36.70;;;;;;482052;246;1326;-47
2022/01/03 08:09:31;;;;;;;;;;;22.50;36.60;;;;;;482233;246;2189;-47
2022/01/03 08:11:33;;;;;;;;;;;22.50;36.60;;;;;;481899;246;1194;-47
2022/01/03 08:13:34;;;;;;;;;;;22.50;36.60;;;;;;482006;246;1292;-47
2022/01/03 08:15:35;;;;;;;;;;;22.50;36.60;;;;;;481916;246;1482;-47
2022/01/03 08:17:37;;;;;;;;;;;22.50;36.60;;;;;;481822;246;1184;-47
2022/01/03 08:19:38;;;;;;;;;;;22.50;36.50;;;;;;481972;246;1261;-46
2022/01/03 08:21:39;;;;;;;;;;;22.60;36.60;;;;;;481924;246;1252;-47
2022/01/03 08:23:40;;;;;;;;;;;22.50;36.60;;;;;;481881;246;1300;-47
2022/01/03 08:25:42;;;;;;;;;;;22.50;36.50;;;;;;481736;246;1310;-47
2022/01/03 08:27:43;;;;;;;;;;;22.60;36.60;;;;;;481824;246;1258;-47
2022/01/03 08:29:44;;;;;;;;;;;22.60;36.50;;;;;;482004;246;2110;-46
2022/01/03 08:31:46;;;;;;;;;;;22.60;36.50;;;;;;481975;246;1270;-47
2022/01/03 08:33:47;;;;;;;;;;;22.50;36.50;;;;;;482066;246;1207;-47
2022/01/03 08:35:48;;;;;;;;;;;22.60;36.50;;;;;;482030;246;1215;-47
2022/01/03 08:37:50;;;;;;;;;;;22.60;36.50;;;;;;482186;246;1161;-47
2022/01/03 08:39:51;;;;;;;;;;;22.60;36.50;;;;;;481924;246;1130;-47
2022/01/03 08:41:52;;;;;;;;;;;22.60;36.50;;;;;;481888;246;1219;-47
2022/01/03 08:43:54;;;;;;;;;;;22.50;36.70;;;;;;481946;246;1190;-47
2022/01/03 08:45:55;;;;;;;;;;;22.50;36.80;;;;;;482255;246;1325;-46
2022/01/03 08:47:56;;;;;;;;;;;22.30;37.00;;;;;;481972;246;1207;-47
2022/01/03 08:49:57;;;;;;;;;;;22.10;37.40;;;;;;481972;246;2121;-47
2022/01/03 08:52:00;;;;;;;;;;;21.90;37.80;;;;;;482057;246;1185;-46
2022/01/03 08:54:00;;;;;;;;;;;21.80;38.10;;;;;;481936;247;2495;-46
2022/01/03 08:56:01;;;;;;;;;;;21.60;38.30;;;;;;482326;246;1356;-46
2022/01/03 08:58:03;;;;;;;;;;;21.60;38.60;;;;;;482120;246;1168;-46
2022/01/03 09:00:04;;;;;;;;;;;21.50;38.70;;;;;;481973;246;1177;-46
2022/01/03 09:02:06;;;;;;;;;;;21.40;38.70;;;;;;481711;246;1626;-46
2022/01/03 09:04:07;;;;;;;;;;;21.30;38.80;;;;;;482277;246;1030;-46
2022/01/03 09:06:08;;;;;;;;;;;21.30;39.00;;;;;;481895;246;1570;-46
2022/01/03 09:08:10;;;;;;;;;;;21.30;39.10;;;;;;481908;246;1257;-46
2022/01/03 09:10:11;;;;;;;;;;;21.30;39.00;;;;;;482050;246;2189;-46
2022/01/03 09:12:13;;;;;;;;;;;21.20;39.10;;;;;;481780;246;1210;-46
2022/01/03 09:14:14;;;;;;;;;;;21.20;39.10;;;;;;482050;246;1074;-46
2022/01/03 09:16:15;;;;;;;;;;;21.10;39.20;;;;;;481948;247;1324;-46
2022/01/03 09:18:16;;;;;;;;;;;21.10;39.30;;;;;;481889;246;1220;-46
2022/01/03 09:20:18;;;;;;;;;;;21.10;39.30;;;;;;482107;246;1088;-46
2022/01/03 09:22:24;;;;;;;;;;;21.10;39.40;;;;;;481897;246;1190;-46
2022/01/03 09:24:28;;;;;;;;;;;21.10;39.40;;;;;;481619;247;2038;-46
2022/01/03 09:28:56;;;;;;;;;;;21.00;39.40;;;;;;481902;247;1196;-46
2022/01/03 09:30:57;;;;;;;;;;;21.00;39.40;;;;;;480729;247;2133;-47
2022/01/03 09:32:59;;;;;;;;;;;20.90;39.40;;;;;;481987;246;1518;-46
2022/01/03 09:35:00;;;;;;;;;;;20.90;39.50;;;;;;482128;246;1031;-46
2022/01/03 09:37:02;;;;;;;;;;;20.90;39.60;;;;;;481990;246;1241;-46
2022/01/03 09:39:03;;;;;;;;;;;20.90;39.60;;;;;;481952;246;1447;-46
2022/01/03 09:41:04;;;;;;;;;;;20.90;39.70;;;;;;481480;246;1303;-46
2022/01/03 09:43:05;;;;;;;;;;;20.80;39.70;;;;;;481863;246;1111;-47
2022/01/03 09:45:07;;;;;;;;;;;20.80;39.60;;;;;;481979;246;1092;-47
2022/01/03 09:47:08;;;;;;;;;;;20.80;39.60;;;;;;481884;246;1212;-46
2022/01/03 09:49:09;;;;;;;;;;;20.80;39.70;;;;;;481915;246;1294;-46
2022/01/03 09:51:12;;;;;;;;;;;20.80;39.70;;;;;;481884;246;2184;-47
2022/01/03 09:53:13;;;;;;;;;;;20.80;39.70;;;;;;481906;246;1240;-46
2022/01/03 09:55:14;;;;;;;;;;;20.80;39.70;;;;;;482012;246;1216;-46
2022/01/03 09:57:16;;;;;;;;;;;20.80;39.70;;;;;;481953;246;1174;-46
2022/01/03 09:59:17;;;;;;;;;;;20.70;39.70;;;;;;482046;246;1063;-47
2022/01/03 10:01:18;;;;;;;;;;;20.70;39.70;;;;;;481708;246;1161;-46
2022/01/03 10:03:20;;;;;;;;;;;20.70;39.70;;;;;;481883;246;1183;-46
2022/01/03 10:05:21;;;;;;;;;;;20.70;39.70;;;;;;482000;246;1337;-46
2022/01/03 10:07:22;;;;;;;;;;;20.70;39.80;;;;;;481996;246;1203;-46
2022/01/03 10:09:24;;;;;;;;;;;20.60;39.70;;;;;;482024;246;1199;-46
2022/01/03 10:11:26;;;;;;;;;;;20.60;39.70;;;;;;481876;246;2175;-47
2022/01/03 10:13:26;;;;;;;;;;;20.60;39.70;;;;;;481967;246;2229;-46
2022/01/03 10:15:27;;;;;;;;;;;20.60;39.80;;;;;;481968;246;1097;-46
2022/01/03 10:17:29;;;;;;;;;;;20.60;39.90;;;;;;482095;246;1190;-46
2022/01/03 10:19:30;;;;;;;;;;;20.60;39.80;;;;;;482001;246;1210;-46
2022/01/03 10:21:31;;;;;;;;;;;20.60;39.70;;;;;;481786;246;1338;-46
2022/01/03 10:23:33;;;;;;;;;;;20.60;39.70;;;;;;481923;246;1045;-46
2022/01/03 10:25:34;;;;;;;;;;;20.60;39.80;;;;;;481930;246;1105;-46
2022/01/03 10:27:35;;;;;;;;;;;20.60;39.80;;;;;;481981;246;1162;-46
2022/01/03 10:29:37;;;;;;;;;;;20.50;39.80;;;;;;482066;246;1040;-46
2022/01/03 10:31:38;;;;;;;;;;;20.50;39.80;;;;;;481982;246;2132;-47
2022/01/03 10:33:39;;;;;;;;;;;20.50;39.90;;;;;;481871;246;1540;-46
2022/01/03 10:35:41;;;;;;;;;;;20.50;39.90;;;;;;481942;246;1238;-46
2022/01/03 10:37:42;;;;;;;;;;;20.60;39.90;;;;;;482025;246;1177;-46
2022/01/03 10:39:43;;;;;;;;;;;20.50;39.80;;;;;;482100;246;1106;-46
2022/01/03 10:41:45;;;;;;;;;;;20.50;39.80;;;;;;482002;246;1327;-46
2022/01/03 10:43:46;;;;;;;;;;;20.50;39.90;;;;;;481948;246;1128;-46
2022/01/03 10:45:47;;;;;;;;;;;20.50;39.80;;;;;;481988;246;1549;-46
2022/01/03 10:47:49;;;;;;;;;;;20.50;39.80;;;;;;481925;246;1240;-46
2022/01/03 10:49:50;;;;;;;;;;;20.50;39.80;;;;;;481902;246;1268;-47
2022/01/03 10:51:51;;;;;;;;;;;20.50;39.80;;;;;;481887;246;2193;-46
2022/01/03 10:53:54;;;;;;;;;;;20.50;39.80;;;;;;481945;246;1184;-46
2022/01/03 10:55:54;;;;;;;;;;;20.50;39.80;;;;;;481884;246;2220;-46
2022/01/03 10:57:55;;;;;;;;;;;20.50;39.80;;;;;;481910;246;1193;-46
2022/01/03 10:59:56;;;;;;;;;;;20.40;39.80;;;;;;482051;246;1294;-46
2022/01/03 11:01:58;;;;;;;;;;;20.40;39.80;;;;;;481921;246;1188;-46
2022/01/03 11:04:01;;;;;;;;;;;20.50;39.90;;;;;;481907;246;1533;-46
2022/01/03 11:06:12;;;;;;;;;;;20.50;39.80;;;;;;481653;243;2059;-47
2022/01/03 11:12:41;;;;;;;;;;;20.40;39.90;;;;;;481806;247;1148;-46
2022/01/03 11:14:42;;;;;;;;;;;20.40;39.80;;;;;;481828;246;1127;-46
2022/01/03 11:16:43;;;;;;;;;;;20.50;39.90;;;;;;481829;246;1532;-46
2022/01/03 11:18:45;;;;;;;;;;;20.40;39.90;;;;;;481845;246;1243;-46
2022/01/03 11:20:46;;;;;;;;;;;20.40;39.80;;;;;;481945;246;1384;-46
2022/01/03 11:22:48;;;;;;;;;;;20.40;39.80;;;;;;481875;246;1195;-46
2022/01/03 11:24:49;;;;;;;;;;;20.40;39.90;;;;;;482027;246;1062;-46
2022/01/03 11:26:50;;;;;;;;;;;20.40;39.90;;;;;;482059;246;1214;-46
2022/01/03 11:28:52;;;;;;;;;;;20.40;39.80;;;;;;482059;246;1044;-46
2022/01/03 11:30:53;;;;;;;;;;;20.40;39.80;;;;;;481798;246;2114;-46
2022/01/03 11:32:55;;;;;;;;;;;20.40;39.80;;;;;;481818;246;1133;-46
2022/01/03 11:34:56;;;;;;;;;;;20.40;39.90;;;;;;481751;246;1534;-46
2022/01/03 11:36:57;;;;;;;;;;;20.40;39.90;;;;;;481782;246;1224;-46
2022/01/03 11:38:58;;;;;;;;;;;20.40;39.90;;;;;;481821;246;1128;-46
2022/01/03 11:41:00;;;;;;;;;;;20.30;39.90;;;;;;481872;246;1547;-46
2022/01/03 11:43:02;;;;;;;;;;;20.30;39.80;;;;;;481877;246;1648;-46
2022/01/03 11:45:03;;;;;;;;;;;20.40;39.90;;;;;;481820;246;1156;-46
2022/01/03 11:47:07;;;;;;;;;;;20.40;39.90;;;;;;481760;246;1270;-46
2022/01/03 11:49:06;;;;;;;;;;;20.30;39.90;;;;;;481791;247;1909;-46
2022/01/03 11:51:07;;;;;;;;;;;20.40;39.90;;;;;;481768;246;2188;-46
2022/01/03 11:53:09;;;;;;;;;;;20.30;39.90;;;;;;481750;246;1090;-46
2022/01/03 11:55:10;;;;;;;;;;;20.30;39.90;;;;;;481771;246;1364;-46
2022/01/03 11:57:16;;;;;;;;;;;20.30;39.90;;;;;;481571;246;1257;-46
2022/01/03 11:59:24;;;;;;;;;;;20.30;39.80;;;;;;481627;247;2205;-46
2022/01/03 12:03:41;;;;;;;;;;;20.30;39.80;;;;;;481923;247;1031;-47
2022/01/03 12:05:42;;;;;;;;;;;20.30;39.90;;;;;;481870;246;1369;-46
2022/01/03 12:07:44;;;;;;;;;;;20.30;39.80;;;;;;481815;246;1176;-46
2022/01/03 12:09:47;;;;;;;;;;;20.30;39.90;;;;;;481874;246;1033;-46
2022/01/03 12:11:47;;;;;;;;;;;20.30;39.90;;;;;;481737;246;2185;-46
2022/01/03 12:13:48;;;;;;;;;;;20.30;40.00;;;;;;481832;246;2294;-46